createdAt,value
2018-07-08T00:00:38.775Z,17.02
2018-07-08T00:01:38.763Z,17.02
2018-07-08T00:02:38.754Z,17.05
2018-07-08T00:03:38.753Z,17.01
2018-07-08T00:04:38.960Z,16.99
2018-07-08T00:05:38.758Z,16.93
2018-07-08T00:06:38.777Z,16.89
2018-07-08T00:07:38.983Z,16.91
2018-07-08T00:08:38.763Z,16.86
2018-07-08T00:09:38.767Z,16.86
2018-07-08T00:10:38.788Z,16.86
2018-07-08T00:11:38.781Z,16.76
2018-07-08T00:12:38.773Z,16.78
2018-07-08T00:13:38.775Z,16.66
2018-07-08T00:14:38.997Z,16.64
2018-07-08T00:15:38.777Z,16.61
2018-07-08T00:16:38.780Z,16.56
2018-07-08T00:17:38.792Z,16.47
2018-07-08T00:18:38.784Z,16.57
2018-07-08T00:19:38.792Z,16.56
2018-07-08T00:20:38.992Z,16.50
2018-07-08T00:21:38.792Z,16.50
2018-07-08T00:22:38.793Z,16.42
2018-07-08T00:23:38.795Z,16.49
2018-07-08T00:24:38.799Z,16.49
2018-07-08T00:25:38.825Z,16.43
2018-07-08T00:26:38.800Z,16.38
2018-07-08T00:27:38.803Z,16.47
2018-07-08T00:28:39.009Z,16.42
2018-07-08T00:29:38.831Z,16.42
2018-07-08T00:30:38.807Z,16.41
2018-07-08T00:31:38.809Z,16.42
2018-07-08T00:32:38.811Z,16.38
2018-07-08T00:33:38.824Z,16.49
2018-07-08T00:34:38.814Z,16.39
2018-07-08T00:35:38.818Z,16.42
2018-07-08T00:36:38.818Z,16.54
2018-07-08T00:37:38.822Z,16.56
2018-07-08T00:38:38.824Z,16.46
2018-07-08T00:39:38.826Z,16.38
2018-07-08T00:40:38.826Z,16.42
2018-07-08T00:41:38.829Z,16.38
2018-07-08T00:42:38.834Z,16.31
2018-07-08T00:43:38.830Z,16.39
2018-07-08T00:44:38.837Z,16.39
2018-07-08T00:45:38.837Z,16.32
2018-07-08T00:46:38.847Z,16.28
2018-07-08T00:47:38.849Z,16.23
2018-07-08T00:48:38.841Z,16.15
2018-07-08T00:49:38.840Z,15.97
2018-07-08T00:50:38.845Z,15.88
2018-07-08T00:51:38.845Z,15.79
2018-07-08T00:52:38.846Z,15.75
2018-07-08T00:53:38.848Z,15.62
2018-07-08T00:54:39.065Z,15.64
2018-07-08T00:55:39.057Z,15.57
2018-07-08T00:56:38.870Z,15.61
2018-07-08T00:57:38.866Z,15.46
2018-07-08T00:58:38.866Z,15.47
2018-07-08T00:59:38.860Z,15.47
2018-07-08T01:00:38.870Z,15.49
2018-07-08T01:01:38.914Z,15.39
2018-07-08T01:02:38.864Z,15.29
2018-07-08T01:03:38.869Z,15.25
2018-07-08T01:04:38.872Z,15.18
2018-07-08T01:05:38.867Z,15.17
2018-07-08T01:06:38.871Z,15.22
2018-07-08T01:07:38.876Z,15.22
2018-07-08T01:08:39.136Z,15.17
2018-07-08T01:09:38.873Z,15.18
2018-07-08T01:10:38.889Z,15.07
2018-07-08T01:11:38.877Z,15.21
2018-07-08T01:12:38.891Z,15.19
2018-07-08T01:13:38.885Z,15.14
2018-07-08T01:14:38.885Z,15.07
2018-07-08T01:15:38.889Z,15.14
2018-07-08T01:16:38.886Z,15.11
2018-07-08T01:17:39.113Z,15.10
2018-07-08T01:18:38.913Z,15.14
2018-07-08T01:19:39.091Z,15.09
2018-07-08T01:20:38.894Z,15.03
2018-07-08T01:21:38.924Z,15.00
2018-07-08T01:22:38.906Z,15.03
2018-07-08T01:23:38.898Z,14.89
2018-07-08T01:24:39.100Z,15.02
2018-07-08T01:25:39.113Z,14.97
2018-07-08T01:26:38.902Z,14.92
2018-07-08T01:27:39.109Z,14.97
2018-07-08T01:28:38.916Z,14.97
2018-07-08T01:29:38.906Z,15.02
2018-07-08T01:30:38.909Z,14.99
2018-07-08T01:31:38.908Z,15.02
2018-07-08T01:32:39.115Z,15.04
2018-07-08T01:33:38.914Z,15.06
2018-07-08T01:34:39.116Z,15.07
2018-07-08T01:35:38.925Z,15.04
2018-07-08T01:36:38.927Z,15.17
2018-07-08T01:37:38.926Z,15.04
2018-07-08T01:38:39.134Z,15.14
2018-07-08T01:39:38.933Z,15.07
2018-07-08T01:40:38.934Z,15.03
2018-07-08T01:41:38.925Z,15.00
2018-07-08T01:42:38.938Z,15.03
2018-07-08T01:43:39.142Z,14.94
2018-07-08T01:44:38.942Z,14.94
2018-07-08T01:45:38.932Z,14.88
2018-07-08T01:46:39.144Z,14.79
2018-07-08T01:47:38.946Z,14.79
2018-07-08T01:48:38.967Z,14.79
2018-07-08T01:49:38.961Z,14.72
2018-07-08T01:50:39.165Z,14.70
2018-07-08T01:51:38.956Z,14.62
2018-07-08T01:52:38.956Z,14.63
2018-07-08T01:53:38.946Z,14.66
2018-07-08T01:54:39.145Z,14.65
2018-07-08T01:55:38.945Z,14.66
2018-07-08T01:56:38.957Z,14.78
2018-07-08T01:57:38.963Z,14.82
2018-07-08T01:58:38.950Z,14.78
2018-07-08T01:59:38.950Z,14.70
2018-07-08T02:00:38.966Z,14.73
2018-07-08T02:01:38.954Z,14.72
2018-07-08T02:02:38.965Z,14.69
2018-07-08T02:03:38.957Z,14.59
2018-07-08T02:04:38.973Z,14.51
2018-07-08T02:05:38.977Z,14.53
2018-07-08T02:06:38.972Z,14.55
2018-07-08T02:07:39.165Z,14.55
2018-07-08T02:08:38.977Z,14.54
2018-07-08T02:09:39.199Z,14.58
2018-07-08T02:10:38.967Z,14.51
2018-07-08T02:11:38.971Z,14.59
2018-07-08T02:12:39.174Z,14.53
2018-07-08T02:13:38.984Z,14.55
2018-07-08T02:14:38.998Z,14.53
2018-07-08T02:15:38.975Z,14.53
2018-07-08T02:16:38.976Z,14.53
2018-07-08T02:17:38.976Z,14.48
2018-07-08T02:18:38.979Z,14.36
2018-07-08T02:19:39.195Z,14.47
2018-07-08T02:20:38.981Z,14.37
2018-07-08T02:21:38.985Z,14.37
2018-07-08T02:22:38.995Z,14.28
2018-07-08T02:23:39.189Z,14.23
2018-07-08T02:24:39.211Z,14.22
2018-07-08T02:25:39.005Z,14.23
2018-07-08T02:26:39.192Z,14.15
2018-07-08T02:27:39.003Z,14.00
2018-07-08T02:28:39.005Z,13.97
2018-07-08T02:29:38.992Z,13.90
2018-07-08T02:30:38.992Z,13.79
2018-07-08T02:31:39.004Z,13.75
2018-07-08T02:32:39.008Z,13.75
2018-07-08T02:33:39.228Z,13.60
2018-07-08T02:34:38.998Z,13.52
2018-07-08T02:35:39.000Z,13.46
2018-07-08T02:36:39.017Z,13.33
2018-07-08T02:37:39.035Z,13.38
2018-07-08T02:38:39.013Z,13.16
2018-07-08T02:39:39.209Z,13.13
2018-07-08T02:40:39.023Z,13.09
2018-07-08T02:41:39.009Z,13.20
2018-07-08T02:42:39.012Z,13.11
2018-07-08T02:43:39.009Z,13.18
2018-07-08T02:44:39.227Z,13.13
2018-07-08T02:45:39.023Z,13.16
2018-07-08T02:46:39.013Z,13.12
2018-07-08T02:47:39.023Z,13.20
2018-07-08T02:48:39.013Z,13.09
2018-07-08T02:49:39.226Z,13.23
2018-07-08T02:50:39.026Z,13.22
2018-07-08T02:51:39.019Z,13.18
2018-07-08T02:52:39.221Z,13.15
2018-07-08T02:53:39.235Z,13.16
2018-07-08T02:54:39.223Z,13.01
2018-07-08T02:55:39.035Z,12.94
2018-07-08T02:56:39.022Z,12.94
2018-07-08T02:57:39.095Z,12.80
2018-07-08T02:58:39.226Z,12.75
2018-07-08T02:59:39.040Z,12.95
2018-07-08T03:00:39.024Z,12.80
2018-07-08T03:01:39.230Z,12.83
2018-07-08T03:02:39.232Z,12.79
2018-07-08T03:03:39.044Z,12.82
2018-07-08T03:04:39.030Z,12.91
2018-07-08T03:05:39.040Z,12.78
2018-07-08T03:06:39.032Z,12.82
2018-07-08T03:07:39.042Z,12.85
2018-07-08T03:08:39.048Z,13.00
2018-07-08T03:09:39.049Z,13.13
2018-07-08T03:10:39.034Z,13.20
2018-07-08T03:11:39.038Z,13.27
2018-07-08T03:12:39.049Z,13.23
2018-07-08T03:13:39.047Z,13.25
2018-07-08T03:14:39.037Z,13.35
2018-07-08T03:15:39.260Z,13.33
2018-07-08T03:16:39.039Z,13.33
2018-07-08T03:17:39.242Z,13.37
2018-07-08T03:18:39.049Z,13.23
2018-07-08T03:19:39.042Z,13.25
2018-07-08T03:20:39.052Z,13.25
2018-07-08T03:21:39.243Z,13.16
2018-07-08T03:22:39.042Z,13.18
2018-07-08T03:23:39.043Z,13.19
2018-07-08T03:24:39.053Z,13.20
2018-07-08T03:25:39.055Z,13.22
2018-07-08T03:26:39.051Z,13.16
2018-07-08T03:27:39.046Z,13.23
2018-07-08T03:28:39.251Z,13.16
2018-07-08T03:29:39.059Z,13.08
2018-07-08T03:30:39.048Z,13.08
2018-07-08T03:31:39.251Z,13.11
2018-07-08T03:32:39.058Z,13.08
2018-07-08T03:33:39.051Z,13.09
2018-07-08T03:34:39.076Z,13.18
2018-07-08T03:35:39.269Z,13.08
2018-07-08T03:36:39.069Z,13.11
2018-07-08T03:37:39.257Z,13.18
2018-07-08T03:38:39.052Z,13.09
2018-07-08T03:39:39.055Z,13.18
2018-07-08T03:40:39.067Z,13.16
2018-07-08T03:41:39.059Z,13.09
2018-07-08T03:42:39.066Z,13.12
2018-07-08T03:43:39.283Z,13.12
2018-07-08T03:44:39.059Z,13.12
2018-07-08T03:45:39.058Z,13.18
2018-07-08T03:46:39.109Z,13.16
2018-07-08T03:47:39.060Z,13.19
2018-07-08T03:48:39.073Z,13.05
2018-07-08T03:49:39.261Z,13.11
2018-07-08T03:50:39.076Z,13.09
2018-07-08T03:51:39.274Z,13.08
2018-07-08T03:52:39.075Z,13.16
2018-07-08T03:53:39.265Z,13.05
2018-07-08T03:54:39.080Z,13.09
2018-07-08T03:55:39.268Z,13.15
2018-07-08T03:56:39.065Z,13.08
2018-07-08T03:57:39.283Z,13.11
2018-07-08T03:58:39.066Z,13.09
2018-07-08T03:59:39.079Z,13.08
2018-07-08T04:00:39.067Z,13.15
2018-07-08T04:01:39.070Z,13.11
2018-07-08T04:02:39.076Z,13.09
2018-07-08T04:03:39.078Z,13.15
2018-07-08T04:04:39.277Z,13.31
2018-07-08T04:05:39.068Z,13.42
2018-07-08T04:06:39.081Z,13.42
2018-07-08T04:07:39.069Z,13.47
2018-07-08T04:08:39.273Z,13.46
2018-07-08T04:09:39.081Z,13.50
2018-07-08T04:10:39.072Z,13.53
2018-07-08T04:11:39.277Z,13.56
2018-07-08T04:12:39.086Z,13.62
2018-07-08T04:13:39.085Z,13.63
2018-07-08T04:14:39.287Z,13.68
2018-07-08T04:15:39.307Z,13.79
2018-07-08T04:16:39.278Z,13.87
2018-07-08T04:17:39.078Z,13.83
2018-07-08T04:18:39.080Z,14.00
2018-07-08T04:19:39.087Z,13.90
2018-07-08T04:20:39.092Z,13.95
2018-07-08T04:21:39.281Z,13.93
2018-07-08T04:22:39.090Z,13.97
2018-07-08T04:23:39.079Z,13.96
2018-07-08T04:24:39.284Z,14.08
2018-07-08T04:25:39.295Z,14.14
2018-07-08T04:26:39.080Z,14.15
2018-07-08T04:27:39.084Z,14.14
2018-07-08T04:28:39.098Z,14.11
2018-07-08T04:29:39.083Z,14.15
2018-07-08T04:30:39.083Z,14.15
2018-07-08T04:31:39.298Z,14.15
2018-07-08T04:32:39.087Z,14.23
2018-07-08T04:33:39.089Z,14.14
2018-07-08T04:34:39.084Z,14.22
2018-07-08T04:35:39.102Z,14.22
2018-07-08T04:36:39.090Z,14.20
2018-07-08T04:37:39.101Z,14.20
2018-07-08T04:38:39.291Z,14.26
2018-07-08T04:39:39.087Z,14.32
2018-07-08T04:40:39.089Z,14.33
2018-07-08T04:41:39.088Z,14.32
2018-07-08T04:42:39.090Z,14.35
2018-07-08T04:43:39.093Z,14.33
2018-07-08T04:44:39.104Z,14.30
2018-07-08T04:45:39.305Z,14.43
2018-07-08T04:46:39.093Z,14.41
2018-07-08T04:47:39.092Z,14.35
2018-07-08T04:48:39.103Z,14.48
2018-07-08T04:49:39.297Z,14.47
2018-07-08T04:50:39.094Z,14.51
2018-07-08T04:51:39.302Z,14.53
2018-07-08T04:52:39.311Z,14.51
2018-07-08T04:53:39.108Z,14.47
2018-07-08T04:54:39.118Z,14.66
2018-07-08T04:55:39.103Z,14.62
2018-07-08T04:56:39.313Z,14.68
2018-07-08T04:57:39.127Z,14.77
2018-07-08T04:58:39.113Z,14.69
2018-07-08T04:59:39.111Z,14.73
2018-07-08T05:00:39.133Z,14.82
2018-07-08T05:01:39.161Z,14.79
2018-07-08T05:02:39.101Z,14.81
2018-07-08T05:03:39.102Z,14.78
2018-07-08T05:04:39.104Z,14.84
2018-07-08T05:05:39.309Z,14.91
2018-07-08T05:06:39.216Z,14.77
2018-07-08T05:07:39.317Z,14.79
2018-07-08T05:08:39.104Z,14.79
2018-07-08T05:09:39.117Z,14.77
2018-07-08T05:10:39.322Z,14.82
2018-07-08T05:11:39.107Z,14.91
2018-07-08T05:12:39.110Z,14.92
2018-07-08T05:13:39.110Z,14.86
2018-07-08T05:14:39.106Z,14.96
2018-07-08T05:15:39.110Z,14.96
2018-07-08T05:16:39.120Z,15.02
2018-07-08T05:17:39.111Z,14.99
2018-07-08T05:18:39.332Z,15.00
2018-07-08T05:19:39.113Z,15.07
2018-07-08T05:20:39.134Z,15.11
2018-07-08T05:21:39.122Z,15.14
2018-07-08T05:22:39.336Z,15.22
2018-07-08T05:23:39.118Z,15.18
2018-07-08T05:24:39.119Z,15.22
2018-07-08T05:25:39.115Z,15.28
2018-07-08T05:26:39.124Z,15.27
2018-07-08T05:27:39.325Z,15.36
2018-07-08T05:28:39.115Z,15.39
2018-07-08T05:29:39.116Z,15.40
2018-07-08T05:30:39.130Z,15.40
2018-07-08T05:31:39.134Z,15.51
2018-07-08T05:32:39.129Z,15.51
2018-07-08T05:33:39.133Z,15.51
2018-07-08T05:34:39.119Z,15.58
2018-07-08T05:35:39.130Z,15.51
2018-07-08T05:36:39.326Z,15.54
2018-07-08T05:37:39.122Z,15.61
2018-07-08T05:38:39.328Z,15.65
2018-07-08T05:39:39.340Z,15.65
2018-07-08T05:40:39.330Z,15.64
2018-07-08T05:41:39.125Z,15.65
2018-07-08T05:42:39.139Z,15.76
2018-07-08T05:43:39.155Z,15.65
2018-07-08T05:44:39.145Z,15.77
2018-07-08T05:45:39.345Z,15.75
2018-07-08T05:46:39.129Z,15.83
2018-07-08T05:47:39.140Z,15.76
2018-07-08T05:48:39.140Z,15.86
2018-07-08T05:49:39.137Z,15.86
2018-07-08T05:50:39.198Z,15.86
2018-07-08T05:51:39.146Z,15.77
2018-07-08T05:52:39.145Z,15.90
2018-07-08T05:53:39.134Z,15.91
2018-07-08T05:54:39.139Z,15.94
2018-07-08T05:55:39.341Z,15.88
2018-07-08T05:56:39.142Z,15.90
2018-07-08T05:57:39.139Z,15.95
2018-07-08T05:58:39.141Z,15.94
2018-07-08T05:59:39.141Z,16.15
2018-07-08T06:00:39.142Z,16.13
2018-07-08T06:01:39.156Z,16.13
2018-07-08T06:02:39.142Z,16.10
2018-07-08T06:03:39.347Z,16.16
2018-07-08T06:04:39.183Z,16.31
2018-07-08T06:05:39.151Z,16.23
2018-07-08T06:06:39.375Z,16.33
2018-07-08T06:07:39.159Z,16.33
2018-07-08T06:08:39.149Z,16.26
2018-07-08T06:09:39.364Z,16.35
2018-07-08T06:10:39.163Z,16.36
2018-07-08T06:11:39.367Z,16.33
2018-07-08T06:12:39.152Z,16.36
2018-07-08T06:13:39.154Z,16.39
2018-07-08T06:14:39.153Z,16.42
2018-07-08T06:15:39.168Z,16.49
2018-07-08T06:16:39.157Z,16.53
2018-07-08T06:17:39.160Z,16.49
2018-07-08T06:18:39.171Z,16.54
2018-07-08T06:19:39.174Z,16.53
2018-07-08T06:20:39.172Z,16.58
2018-07-08T06:21:39.364Z,16.61
2018-07-08T06:22:39.164Z,16.71
2018-07-08T06:23:39.179Z,16.71
2018-07-08T06:24:39.165Z,16.84
2018-07-08T06:25:39.165Z,16.72
2018-07-08T06:26:39.367Z,16.86
2018-07-08T06:27:39.168Z,16.74
2018-07-08T06:28:39.175Z,16.76
2018-07-08T06:29:39.169Z,16.75
2018-07-08T06:30:39.381Z,16.84
2018-07-08T06:31:39.199Z,16.83
2018-07-08T06:32:39.171Z,16.84
2018-07-08T06:33:39.381Z,16.84
2018-07-08T06:34:39.171Z,16.83
2018-07-08T06:35:39.388Z,16.89
2018-07-08T06:36:39.176Z,16.97
2018-07-08T06:37:39.177Z,16.93
2018-07-08T06:38:39.379Z,16.94
2018-07-08T06:39:39.194Z,17.02
2018-07-08T06:40:39.190Z,17.24
2018-07-08T06:41:39.190Z,17.23
2018-07-08T06:42:39.195Z,17.22
2018-07-08T06:43:39.181Z,17.23
2018-07-08T06:44:39.186Z,17.30
2018-07-08T06:45:39.253Z,17.26
2018-07-08T06:46:39.186Z,17.26
2018-07-08T06:47:39.185Z,17.29
2018-07-08T06:48:39.197Z,17.24
2018-07-08T06:49:39.198Z,17.36
2018-07-08T06:50:39.190Z,17.36
2018-07-08T06:51:39.192Z,17.26
2018-07-08T06:52:39.221Z,17.36
2018-07-08T06:53:39.206Z,17.30
2018-07-08T06:54:39.207Z,17.41
2018-07-08T06:55:39.195Z,17.51
2018-07-08T06:56:39.196Z,17.63
2018-07-08T06:57:39.416Z,17.54
2018-07-08T06:58:39.404Z,17.60
2018-07-08T06:59:39.202Z,17.41
2018-07-08T07:00:39.202Z,17.42
2018-07-08T07:01:39.204Z,17.39
2018-07-08T07:02:39.219Z,17.39
2018-07-08T07:03:39.216Z,17.39
2018-07-08T07:04:39.207Z,17.38
2018-07-08T07:05:39.222Z,17.33
2018-07-08T07:06:39.225Z,17.56
2018-07-08T07:07:39.238Z,17.48
2018-07-08T07:08:39.236Z,17.59
2018-07-08T07:09:39.226Z,17.63
2018-07-08T07:10:39.242Z,17.67
2018-07-08T07:11:39.243Z,17.74
2018-07-08T07:12:39.219Z,17.79
2018-07-08T07:13:39.223Z,17.80
2018-07-08T07:14:39.236Z,17.76
2018-07-08T07:15:39.228Z,17.76
2018-07-08T07:16:39.235Z,17.83
2018-07-08T07:17:39.227Z,17.86
2018-07-08T07:18:39.226Z,17.92
2018-07-08T07:19:39.228Z,17.95
2018-07-08T07:20:39.243Z,17.86
2018-07-08T07:21:39.232Z,17.85
2018-07-08T07:22:39.234Z,17.80
2018-07-08T07:23:39.235Z,17.76
2018-07-08T07:24:39.246Z,17.68
2018-07-08T07:25:39.238Z,17.78
2018-07-08T07:26:39.242Z,17.83
2018-07-08T07:27:39.243Z,17.82
2018-07-08T07:28:39.249Z,17.72
2018-07-08T07:29:39.447Z,17.78
2018-07-08T07:30:39.244Z,17.80
2018-07-08T07:31:39.257Z,17.80
2018-07-08T07:32:39.250Z,17.85
2018-07-08T07:33:39.455Z,17.89
2018-07-08T07:34:39.256Z,17.89
2018-07-08T07:35:39.255Z,17.98
2018-07-08T07:36:39.258Z,18.11
2018-07-08T07:37:39.466Z,18.10
2018-07-08T07:38:39.259Z,18.18
2018-07-08T07:39:39.263Z,18.16
2018-07-08T07:40:39.276Z,18.16
2018-07-08T07:41:39.473Z,18.10
2018-07-08T07:42:39.277Z,18.08
2018-07-08T07:43:39.471Z,18.07
2018-07-08T07:44:39.471Z,18.22
2018-07-08T07:45:39.271Z,18.16
2018-07-08T07:46:39.274Z,18.16
2018-07-08T07:47:39.276Z,18.25
2018-07-08T07:48:39.276Z,18.31
2018-07-08T07:49:39.479Z,18.35
2018-07-08T07:50:39.278Z,18.23
2018-07-08T07:51:39.281Z,18.33
2018-07-08T07:52:39.282Z,18.29
2018-07-08T07:53:39.306Z,18.28
2018-07-08T07:54:39.287Z,18.23
2018-07-08T07:55:39.492Z,18.33
2018-07-08T07:56:39.289Z,18.37
2018-07-08T07:57:39.301Z,18.34
2018-07-08T07:58:39.496Z,18.34
2018-07-08T07:59:39.501Z,18.45
2018-07-08T08:00:39.295Z,18.50
2018-07-08T08:01:39.297Z,18.47
2018-07-08T08:02:39.299Z,18.53
2018-07-08T08:03:39.303Z,18.49
2018-07-08T08:04:39.312Z,18.53
2018-07-08T08:05:39.304Z,18.56
2018-07-08T08:06:39.521Z,18.60
2018-07-08T08:07:39.325Z,18.59
2018-07-08T08:08:39.320Z,18.66
2018-07-08T08:09:39.516Z,18.65
2018-07-08T08:10:39.318Z,18.70
2018-07-08T08:11:39.329Z,18.63
2018-07-08T08:12:39.533Z,18.74
2018-07-08T08:13:39.536Z,18.77
2018-07-08T08:14:39.349Z,18.81
2018-07-08T08:15:39.339Z,18.81
2018-07-08T08:16:39.328Z,18.80
2018-07-08T08:17:39.531Z,18.75
2018-07-08T08:18:39.330Z,18.73
2018-07-08T08:19:39.332Z,18.90
2018-07-08T08:20:39.333Z,18.96
2018-07-08T08:21:39.335Z,18.98
2018-07-08T08:22:39.338Z,18.95
2018-07-08T08:23:39.340Z,18.95
2018-07-08T08:24:39.344Z,19.04
2018-07-08T08:25:39.342Z,19.02
2018-07-08T08:26:39.360Z,19.07
2018-07-08T08:27:39.552Z,19.12
2018-07-08T08:28:39.352Z,19.15
2018-07-08T08:29:39.351Z,19.27
2018-07-08T08:30:39.358Z,19.24
2018-07-08T08:31:39.377Z,19.37
2018-07-08T08:32:39.397Z,19.36
2018-07-08T08:33:39.361Z,19.27
2018-07-08T08:34:39.367Z,19.21
2018-07-08T08:35:39.365Z,19.16
2018-07-08T08:36:39.367Z,19.30
2018-07-08T08:37:39.380Z,19.40
2018-07-08T08:38:39.372Z,19.40
2018-07-08T08:39:39.372Z,19.37
2018-07-08T08:40:39.374Z,19.45
2018-07-08T08:41:39.373Z,19.63
2018-07-08T08:42:39.376Z,19.86
2018-07-08T08:43:39.382Z,19.81
2018-07-08T08:44:39.585Z,19.82
2018-07-08T08:45:39.398Z,19.86
2018-07-08T08:46:39.400Z,19.82
2018-07-08T08:47:39.390Z,19.70
2018-07-08T08:48:39.604Z,19.63
2018-07-08T08:49:39.601Z,19.67
2018-07-08T08:50:39.401Z,19.58
2018-07-08T08:51:39.602Z,19.58
2018-07-08T08:52:39.411Z,19.48
2018-07-08T08:53:39.605Z,19.45
2018-07-08T08:54:39.406Z,19.51
2018-07-08T08:55:39.619Z,19.44
2018-07-08T08:56:39.412Z,19.52
2018-07-08T08:57:39.421Z,19.58
2018-07-08T08:58:39.414Z,19.69
2018-07-08T08:59:39.415Z,19.81
2018-07-08T09:00:39.431Z,19.88
2018-07-08T09:01:39.639Z,19.86
2018-07-08T09:02:39.433Z,19.74
2018-07-08T09:03:39.456Z,19.74
2018-07-08T09:04:39.439Z,19.67
2018-07-08T09:05:39.429Z,19.71
2018-07-08T09:06:39.434Z,19.73
2018-07-08T09:07:39.432Z,19.82
2018-07-08T09:08:39.460Z,19.66
2018-07-08T09:09:39.442Z,19.77
2018-07-08T09:10:39.497Z,19.85
2018-07-08T09:11:39.443Z,19.91
2018-07-08T09:12:39.446Z,19.95
2018-07-08T09:13:39.447Z,19.96
2018-07-08T09:14:39.652Z,19.84
2018-07-08T09:15:39.450Z,19.81
2018-07-08T09:16:39.464Z,20.00
2018-07-08T09:17:39.467Z,20.04
2018-07-08T09:18:39.467Z,20.14
2018-07-08T09:19:39.459Z,20.16
2018-07-08T09:20:39.465Z,20.14
2018-07-08T09:21:39.475Z,20.16
2018-07-08T09:22:39.682Z,20.09
2018-07-08T09:23:39.484Z,20.25
2018-07-08T09:24:39.484Z,20.13
2018-07-08T09:25:39.473Z,20.26
2018-07-08T09:26:39.479Z,20.37
2018-07-08T09:27:39.685Z,20.32
2018-07-08T09:28:39.505Z,20.36
2018-07-08T09:29:39.495Z,20.29
2018-07-08T09:30:39.688Z,20.39
2018-07-08T09:31:39.489Z,20.41
2018-07-08T09:32:39.520Z,20.28
2018-07-08T09:33:39.704Z,20.22
2018-07-08T09:34:39.497Z,20.32
2018-07-08T09:35:39.496Z,20.34
2018-07-08T09:36:39.527Z,20.40
2018-07-08T09:37:39.532Z,20.39
2018-07-08T09:38:39.594Z,20.31
2018-07-08T09:39:39.518Z,20.31
2018-07-08T09:40:39.513Z,20.48
2018-07-08T09:41:39.556Z,20.51
2018-07-08T09:42:39.517Z,20.55
2018-07-08T09:43:39.721Z,20.44
2018-07-08T09:44:39.521Z,20.37
2018-07-08T09:45:39.539Z,20.40
2018-07-08T09:46:39.548Z,20.43
2018-07-08T09:47:39.530Z,20.47
2018-07-08T09:48:39.532Z,20.50
2018-07-08T09:49:39.536Z,20.62
2018-07-08T09:50:39.535Z,20.63
2018-07-08T09:51:39.537Z,20.67
2018-07-08T09:52:39.604Z,20.56
2018-07-08T09:53:39.541Z,20.51
2018-07-08T09:54:39.549Z,20.50
2018-07-08T09:55:39.549Z,20.67
2018-07-08T09:56:39.551Z,20.67
2018-07-08T09:57:39.567Z,20.74
2018-07-08T09:58:39.574Z,20.93
2018-07-08T09:59:39.563Z,21.05
2018-07-08T10:00:39.764Z,20.97
2018-07-08T10:01:39.561Z,20.96
2018-07-08T10:02:39.566Z,20.96
2018-07-08T10:03:39.572Z,21.03
2018-07-08T10:04:39.894Z,21.03
2018-07-08T10:05:39.574Z,21.11
2018-07-08T10:06:39.586Z,21.06
2018-07-08T10:07:39.593Z,20.97
2018-07-08T10:08:39.620Z,20.95
2018-07-08T10:09:39.587Z,20.92
2018-07-08T10:10:39.590Z,21.05
2018-07-08T10:11:39.593Z,21.00
2018-07-08T10:12:39.609Z,21.07
2018-07-08T10:13:39.603Z,21.12
2018-07-08T10:14:39.801Z,21.06
2018-07-08T10:15:39.610Z,21.07
2018-07-08T10:16:39.604Z,21.15
2018-07-08T10:17:39.619Z,21.22
2018-07-08T10:18:39.625Z,21.11
2018-07-08T10:19:39.920Z,21.22
2018-07-08T10:20:39.627Z,21.25
2018-07-08T10:21:39.629Z,21.24
2018-07-08T10:22:39.622Z,21.22
2018-07-08T10:23:39.623Z,21.29
2018-07-08T10:24:39.626Z,21.20
2018-07-08T10:25:39.625Z,21.21
2018-07-08T10:26:39.660Z,21.27
2018-07-08T10:27:39.837Z,21.35
2018-07-08T10:28:39.644Z,21.32
2018-07-08T10:29:39.637Z,21.61
2018-07-08T10:30:39.651Z,21.60
2018-07-08T10:31:39.847Z,21.55
2018-07-08T10:32:39.676Z,21.35
2018-07-08T10:33:39.651Z,21.33
2018-07-08T10:34:39.651Z,21.30
2018-07-08T10:35:39.657Z,21.46
2018-07-08T10:36:39.702Z,21.33
2018-07-08T10:37:39.675Z,21.48
2018-07-08T10:38:39.663Z,21.57
2018-07-08T10:39:39.669Z,21.55
2018-07-08T10:40:39.668Z,21.54
2018-07-08T10:41:39.669Z,21.54
2018-07-08T10:42:39.687Z,21.52
2018-07-08T10:43:39.676Z,21.57
2018-07-08T10:44:39.678Z,21.57
2018-07-08T10:45:39.684Z,21.54
2018-07-08T10:46:39.712Z,21.46
2018-07-08T10:47:39.697Z,21.66
2018-07-08T10:48:39.690Z,21.83
2018-07-08T10:49:39.694Z,21.82
2018-07-08T10:50:39.711Z,21.77
2018-07-08T10:51:39.710Z,21.72
2018-07-08T10:52:39.907Z,21.70
2018-07-08T10:53:39.910Z,21.69
2018-07-08T10:54:39.711Z,21.72
2018-07-08T10:55:39.926Z,21.80
2018-07-08T10:56:39.717Z,21.72
2018-07-08T10:57:39.717Z,21.67
2018-07-08T10:58:39.736Z,21.62
2018-07-08T10:59:39.735Z,21.62
2018-07-08T11:00:39.742Z,21.72
2018-07-08T11:01:39.747Z,21.62
2018-07-08T11:02:39.744Z,21.60
2018-07-08T11:03:39.758Z,21.62
2018-07-08T11:04:39.751Z,21.62
2018-07-08T11:05:39.743Z,21.60
2018-07-08T11:06:39.745Z,21.61
2018-07-08T11:07:39.749Z,21.72
2018-07-08T11:08:39.780Z,21.67
2018-07-08T11:09:39.758Z,21.91
2018-07-08T11:10:39.803Z,21.95
2018-07-08T11:11:39.776Z,21.93
2018-07-08T11:12:39.784Z,21.88
2018-07-08T11:13:39.778Z,21.98
2018-07-08T11:14:39.769Z,22.11
2018-07-08T11:15:39.782Z,22.11
2018-07-08T11:16:39.777Z,22.08
2018-07-08T11:17:39.777Z,22.26
2018-07-08T11:18:39.794Z,22.14
2018-07-08T11:19:39.787Z,22.20
2018-07-08T11:20:39.915Z,22.30
2018-07-08T11:21:39.791Z,22.44
2018-07-08T11:22:39.795Z,22.38
2018-07-08T11:23:39.814Z,22.39
2018-07-08T11:24:39.804Z,22.53
2018-07-08T11:25:39.803Z,22.54
2018-07-08T11:26:39.815Z,22.53
2018-07-08T11:27:39.816Z,22.35
2018-07-08T11:28:39.882Z,22.33
2018-07-08T11:29:40.022Z,22.35
2018-07-08T11:30:40.031Z,22.48
2018-07-08T11:31:40.028Z,22.45
2018-07-08T11:32:40.034Z,22.41
2018-07-08T11:33:39.837Z,22.26
2018-07-08T11:34:39.837Z,22.32
2018-07-08T11:35:39.839Z,22.32
2018-07-08T11:36:39.845Z,22.32
2018-07-08T11:37:39.844Z,22.30
2018-07-08T11:38:39.860Z,22.28
2018-07-08T11:39:39.851Z,22.26
2018-07-08T11:40:39.875Z,22.22
2018-07-08T11:41:40.075Z,22.22
2018-07-08T11:42:40.077Z,22.32
2018-07-08T11:43:40.069Z,22.65
2018-07-08T11:44:39.869Z,22.60
2018-07-08T11:45:39.905Z,22.53
2018-07-08T11:46:39.892Z,22.59
2018-07-08T11:47:39.892Z,22.51
2018-07-08T11:48:39.885Z,22.62
2018-07-08T11:49:39.887Z,22.55
2018-07-08T11:50:39.892Z,22.76
2018-07-08T11:51:39.904Z,22.93
2018-07-08T11:52:39.900Z,22.93
2018-07-08T11:53:39.912Z,22.91
2018-07-08T11:54:39.921Z,22.81
2018-07-08T11:55:40.114Z,22.78
2018-07-08T11:56:39.916Z,22.70
2018-07-08T11:57:39.915Z,22.57
2018-07-08T11:58:39.921Z,22.57
2018-07-08T11:59:39.924Z,22.41
2018-07-08T12:00:39.939Z,22.38
2018-07-08T12:01:40.132Z,22.51
2018-07-08T12:02:39.950Z,22.75
2018-07-08T12:03:39.949Z,22.75
2018-07-08T12:04:39.943Z,22.80
2018-07-08T12:05:39.945Z,22.76
2018-07-08T12:06:39.970Z,22.98
2018-07-08T12:07:39.965Z,22.88
2018-07-08T12:08:39.971Z,22.88
2018-07-08T12:09:40.175Z,22.88
2018-07-08T12:10:40.167Z,22.87
2018-07-08T12:11:40.187Z,22.98
2018-07-08T12:12:39.974Z,22.87
2018-07-08T12:13:39.975Z,22.76
2018-07-08T12:14:40.060Z,22.72
2018-07-08T12:15:40.186Z,22.90
2018-07-08T12:16:39.988Z,22.98
2018-07-08T12:17:40.204Z,22.99
2018-07-08T12:18:40.008Z,23.03
2018-07-08T12:19:40.004Z,23.02
2018-07-08T12:20:40.020Z,23.08
2018-07-08T12:21:40.006Z,23.05
2018-07-08T12:22:40.212Z,23.05
2018-07-08T12:23:40.229Z,23.18
2018-07-08T12:24:40.019Z,23.39
2018-07-08T12:25:40.022Z,23.39
2018-07-08T12:26:40.027Z,23.28
2018-07-08T12:27:40.100Z,23.34
2018-07-08T12:28:40.039Z,23.34
2018-07-08T12:29:40.239Z,23.36
2018-07-08T12:30:40.041Z,23.36
2018-07-08T12:31:40.045Z,23.24
2018-07-08T12:32:40.063Z,23.09
2018-07-08T12:33:40.054Z,23.12
2018-07-08T12:34:40.275Z,23.13
2018-07-08T12:35:40.073Z,23.18
2018-07-08T12:36:40.118Z,23.40
2018-07-08T12:37:40.073Z,23.47
2018-07-08T12:38:40.089Z,23.51
2018-07-08T12:39:40.090Z,23.54
2018-07-08T12:40:40.284Z,23.46
2018-07-08T12:41:40.084Z,23.50
2018-07-08T12:42:40.105Z,23.50
2018-07-08T12:43:40.094Z,23.47
2018-07-08T12:44:40.552Z,23.31
2018-07-08T12:45:40.113Z,23.18
2018-07-08T12:46:40.105Z,23.21
2018-07-08T12:47:40.109Z,23.21
2018-07-08T12:48:40.113Z,23.34
2018-07-08T12:49:40.117Z,23.28
2018-07-08T12:50:40.132Z,23.20
2018-07-08T12:51:40.152Z,23.27
2018-07-08T12:52:40.141Z,23.39